createdAt,value
2022-09-12T00:00:17.183Z,101202.25
2022-09-12T00:02:20.022Z,101196.13
2022-09-12T00:04:21.661Z,101195.88
2022-09-12T00:06:25.916Z,101197.03
2022-09-12T00:08:27.376Z,101192.91
2022-09-12T00:10:28.852Z,101184.47
2022-09-12T00:12:30.360Z,101189.94
2022-09-12T00:14:31.900Z,101189.47
2022-09-12T00:16:35.741Z,101187.94
2022-09-12T00:18:38.660Z,101181.16
2022-09-12T00:20:41.645Z,101179.94
2022-09-12T00:22:43.596Z,101184.72
2022-09-12T00:24:45.240Z,101186.69
2022-09-12T00:26:46.796Z,101176.28
2022-09-12T00:28:48.376Z,101189.66
2022-09-12T00:30:49.936Z,101188.50
2022-09-12T00:32:51.409Z,101186.22
2022-09-12T00:34:54.252Z,101189.84
2022-09-12T00:36:55.726Z,101182.78
2022-09-12T00:38:57.446Z,101186.59
2022-09-12T00:40:58.951Z,101184.22
2022-09-12T00:43:00.454Z,101185.06
2022-09-12T00:45:01.945Z,101190.44
2022-09-12T00:47:10.409Z,101192.91
2022-09-12T00:49:15.691Z,101190.44
2022-09-12T00:51:19.386Z,101188.41
2022-09-12T00:53:21.141Z,101193.19
2022-09-12T00:55:26.085Z,101191.00
2022-09-12T00:57:31.783Z,101190.38
2022-09-12T00:59:39.535Z,101187.03
2022-09-12T01:01:42.834Z,101191.44
2022-09-12T01:03:44.737Z,101181.69
2022-09-12T01:05:52.584Z,101189.81
2022-09-12T01:07:57.069Z,101186.38
2022-09-12T01:09:58.540Z,101179.09
2022-09-12T01:12:01.898Z,101185.19
2022-09-12T01:14:03.383Z,101181.75
2022-09-12T01:16:06.742Z,101181.94
2022-09-12T01:18:16.899Z,101177.72
2022-09-12T01:20:39.102Z,101184.81
2022-09-12T01:23:00.770Z,101187.47
2022-09-12T01:25:09.779Z,101189.38
2022-09-12T01:27:47.681Z,101190.72
2022-09-12T01:30:04.872Z,101188.03
2022-09-12T01:32:13.045Z,101191.00
2022-09-12T01:34:22.253Z,101194.63
2022-09-12T01:36:42.301Z,101193.16
2022-09-12T01:38:48.581Z,101180.84
2022-09-12T01:40:58.861Z,101183.59
2022-09-12T01:43:05.616Z,101176.72
2022-09-12T01:45:11.500Z,101170.50
2022-09-12T01:47:20.444Z,101177.66
2022-09-12T01:49:24.274Z,101172.50
2022-09-12T01:51:31.929Z,101173.44
2022-09-12T01:53:35.127Z,101174.31
2022-09-12T01:55:41.983Z,101168.09
2022-09-12T01:57:49.355Z,101159.66
2022-09-12T01:59:55.321Z,101164.09
2022-09-12T02:02:03.333Z,101170.81
2022-09-12T02:04:09.184Z,101175.13
2022-09-12T02:06:18.407Z,101169.84
2022-09-12T02:08:26.070Z,101179.78
2022-09-12T02:10:32.495Z,101171.34
2022-09-12T02:12:40.209Z,101175.16
2022-09-12T02:14:45.966Z,101180.34
2022-09-12T02:16:51.598Z,101178.44
2022-09-12T02:18:57.624Z,101177.25
2022-09-12T02:21:04.083Z,101184.16
2022-09-12T02:23:12.114Z,101186.22
2022-09-12T02:25:16.360Z,101176.75
2022-09-12T02:27:22.293Z,101176.81
2022-09-12T02:29:24.089Z,101180.09
2022-09-12T02:31:30.157Z,101176.22
2022-09-12T02:33:42.403Z,101172.75
2022-09-12T02:35:49.199Z,101172.25
2022-09-12T02:37:58.966Z,101169.31
2022-09-12T02:40:01.217Z,101163.97
2022-09-12T02:42:03.913Z,101169.88
2022-09-12T02:44:05.792Z,101167.09
2022-09-12T02:46:12.265Z,101159.50
2022-09-12T02:48:18.539Z,101173.31
2022-09-12T02:50:20.354Z,101173.22
2022-09-12T02:52:21.817Z,101179.44
2022-09-12T02:54:25.615Z,101185.56
2022-09-12T02:56:30.125Z,101176.56
2022-09-12T02:58:32.419Z,101178.31
2022-09-12T03:00:41.955Z,101179.44
2022-09-12T03:03:08.656Z,101183.13
2022-09-12T03:05:22.616Z,101186.91
2022-09-12T03:07:36.589Z,101183.28
2022-09-12T03:09:46.105Z,101180.34
2022-09-12T03:12:08.378Z,101179.66
2022-09-12T03:14:22.154Z,101180.97
2022-09-12T03:16:30.516Z,101172.19
2022-09-12T03:18:45.968Z,101179.44
2022-09-12T03:20:53.909Z,101173.63
2022-09-12T03:22:59.126Z,101171.91
2022-09-12T03:25:10.482Z,101174.50
2022-09-12T03:27:16.133Z,101174.75
2022-09-12T03:29:19.002Z,101174.34
2022-09-12T03:31:20.483Z,101165.38
2022-09-12T03:33:24.258Z,101176.94
2022-09-12T03:35:25.721Z,101180.69
2022-09-12T03:37:27.154Z,101172.84
2022-09-12T03:39:28.482Z,101174.59
2022-09-12T03:41:31.269Z,101178.19
2022-09-12T03:43:32.752Z,101169.00
2022-09-12T03:45:34.452Z,101184.69
2022-09-12T03:47:36.224Z,101167.34
2022-09-12T03:49:37.672Z,101174.75
2022-09-12T03:51:39.746Z,101173.03
2022-09-12T03:53:41.181Z,101171.50
2022-09-12T03:55:42.472Z,101178.72
2022-09-12T03:57:45.313Z,101183.13
2022-09-12T03:59:48.460Z,101183.13
2022-09-12T04:01:49.896Z,101186.84
2022-09-12T04:03:52.740Z,101189.50
2022-09-12T04:05:54.170Z,101187.97
2022-09-12T04:07:55.443Z,101184.59
2022-09-12T04:09:57.041Z,101197.81
2022-09-12T04:11:58.609Z,101193.66
2022-09-12T04:14:01.387Z,101192.44
2022-09-12T04:16:03.501Z,101190.66
2022-09-12T04:18:06.104Z,101182.63
2022-09-12T04:20:08.398Z,101181.75
2022-09-12T04:22:09.850Z,101181.06
2022-09-12T04:24:11.245Z,101181.84
2022-09-12T04:26:14.008Z,101186.41
2022-09-12T04:28:15.487Z,101188.31
2022-09-12T04:30:18.525Z,101188.31
2022-09-12T04:32:20.065Z,101188.16
2022-09-12T04:34:21.611Z,101191.75
2022-09-12T04:36:23.252Z,101178.16
2022-09-12T04:38:24.703Z,101181.75
2022-09-12T04:40:26.147Z,101180.03
2022-09-12T04:42:27.576Z,101188.91
2022-09-12T04:44:28.845Z,101178.44
2022-09-12T04:46:35.108Z,101181.41
2022-09-12T04:48:36.915Z,101189.19
2022-09-12T04:50:38.333Z,101186.00
2022-09-12T04:52:39.619Z,101185.47
2022-09-12T04:54:41.201Z,101188.22
2022-09-12T04:56:45.630Z,101187.38
2022-09-12T04:58:47.749Z,101185.22
2022-09-12T05:00:49.325Z,101186.31
2022-09-12T05:02:52.116Z,101182.44
2022-09-12T05:04:53.596Z,101179.47
2022-09-12T05:06:55.021Z,101179.91
2022-09-12T05:08:56.617Z,101191.84
2022-09-12T05:11:02.310Z,101183.75
2022-09-12T05:13:03.755Z,101186.69
2022-09-12T05:15:05.797Z,101182.28
2022-09-12T05:17:07.287Z,101187.47
2022-09-12T05:19:11.269Z,101192.19
2022-09-12T05:21:14.803Z,101198.47
2022-09-12T05:23:16.246Z,101191.59
2022-09-12T05:25:17.700Z,101172.06
2022-09-12T05:27:19.151Z,101187.53
2022-09-12T05:29:20.711Z,101184.34
2022-09-12T05:31:24.804Z,101189.97
2022-09-12T05:33:26.213Z,101188.81
2022-09-12T05:35:29.109Z,101194.03
2022-09-12T05:37:30.588Z,101192.66
2022-09-12T05:39:32.044Z,101193.41
2022-09-12T05:41:34.743Z,101182.88
2022-09-12T05:43:37.421Z,101201.06
2022-09-12T05:45:38.980Z,101198.50
2022-09-12T05:47:40.478Z,101205.38
2022-09-12T05:49:41.919Z,101206.47
2022-09-12T05:51:45.459Z,101204.19
2022-09-12T05:53:48.717Z,101209.13
2022-09-12T05:55:50.156Z,101206.34
2022-09-12T05:57:51.685Z,101213.88
2022-09-12T05:59:53.158Z,101212.81
2022-09-12T06:01:54.619Z,101212.16
2022-09-12T06:03:58.508Z,101215.78
2022-09-12T06:06:02.827Z,101215.34
2022-09-12T06:08:05.632Z,101212.38
2022-09-12T06:10:07.430Z,101219.66
2022-09-12T06:12:08.892Z,101216.88
2022-09-12T06:14:12.722Z,101214.94
2022-09-12T06:16:16.776Z,101218.19
2022-09-12T06:18:18.245Z,101223.34
2022-09-12T06:20:19.680Z,101217.00
2022-09-12T06:22:21.147Z,101232.38
2022-09-12T06:24:23.957Z,101225.28
2022-09-12T06:26:25.496Z,101227.09
2022-09-12T06:28:27.471Z,101229.25
2022-09-12T06:30:29.012Z,101227.63
2022-09-12T06:32:30.735Z,101234.19
2022-09-12T06:34:32.154Z,101230.41
2022-09-12T06:36:36.859Z,101243.31
2022-09-12T06:38:38.996Z,101237.84
2022-09-12T06:40:43.366Z,101230.22
2022-09-12T06:42:44.848Z,101230.84
2022-09-12T06:44:46.271Z,101238.41
2022-09-12T06:46:48.213Z,101231.84
2022-09-12T06:48:50.162Z,101234.00
2022-09-12T06:50:58.439Z,101227.66
2022-09-12T06:52:59.897Z,101227.84
2022-09-12T06:55:01.343Z,101232.69
2022-09-12T06:57:04.171Z,101230.53
2022-09-12T06:59:05.691Z,101226.03
2022-09-12T07:01:09.462Z,101231.22
2022-09-12T07:03:10.966Z,101222.56
2022-09-12T07:05:17.947Z,101219.66
2022-09-12T07:07:22.198Z,101207.50
2022-09-12T07:09:23.681Z,101213.13
2022-09-12T07:11:28.002Z,101216.75
2022-09-12T07:13:30.808Z,101219.09
2022-09-12T07:15:34.758Z,101219.88
2022-09-12T07:17:36.193Z,101217.94
2022-09-12T07:19:37.757Z,101216.56
2022-09-12T07:21:39.234Z,101223.72
2022-09-12T07:23:41.373Z,101221.00
2022-09-12T07:25:42.831Z,101221.13
2022-09-12T07:27:47.131Z,101222.34
2022-09-12T07:29:53.408Z,101229.28
2022-09-12T07:31:54.896Z,101227.22
2022-09-12T07:33:56.593Z,101225.50
2022-09-12T07:36:01.207Z,101223.19
2022-09-12T07:38:02.866Z,101226.41
2022-09-12T07:40:04.905Z,101223.59
2022-09-12T07:42:06.606Z,101222.63
2022-09-12T07:44:08.298Z,101219.69
2022-09-12T07:46:11.622Z,101229.25
2022-09-12T07:48:13.118Z,101229.47
2022-09-12T07:50:14.666Z,101230.22
2022-09-12T07:52:16.103Z,101229.41
2022-09-12T07:54:17.589Z,101227.03
2022-09-12T07:56:19.831Z,101219.06
2022-09-12T07:58:21.313Z,101222.44
2022-09-12T08:00:22.785Z,101220.59
2022-09-12T08:02:25.680Z,101225.72
2022-09-12T08:04:27.166Z,101228.56
2022-09-12T08:06:29.397Z,101224.63
2022-09-12T08:08:30.899Z,101227.69
2022-09-12T08:10:32.412Z,101231.13
2022-09-12T08:12:33.946Z,101232.09
2022-09-12T08:14:35.647Z,101229.19
2022-09-12T08:16:37.778Z,101226.72
2022-09-12T08:18:40.788Z,101229.06
2022-09-12T08:20:42.242Z,101236.16
2022-09-12T08:22:43.876Z,101226.84
2022-09-12T08:24:45.281Z,101234.44
2022-09-12T08:26:46.755Z,101221.84
2022-09-12T08:28:48.290Z,101224.94
2022-09-12T08:30:49.726Z,101224.28
2022-09-12T08:32:51.198Z,101220.34
2022-09-12T08:34:54.004Z,101223.56
2022-09-12T08:36:55.465Z,101231.41
2022-09-12T08:38:59.885Z,101229.94
2022-09-12T08:41:09.405Z,101221.84
2022-09-12T08:43:26.847Z,101222.84
2022-09-12T08:45:34.905Z,101220.72
2022-09-12T08:47:39.076Z,101219.69
2022-09-12T08:49:50.304Z,101222.94
2022-09-12T08:51:54.463Z,101232.38
2022-09-12T08:53:57.702Z,101229.31
2022-09-12T08:56:00.224Z,101225.84
2022-09-12T08:58:07.408Z,101224.19
2022-09-12T09:00:13.484Z,101226.09
2022-09-12T09:02:39.700Z,101218.31
2022-09-12T09:04:50.490Z,101216.19
2022-09-12T09:07:16.872Z,101218.88
2022-09-12T09:09:30.025Z,101221.78
2022-09-12T09:11:48.914Z,101210.69
2022-09-12T09:14:05.466Z,101217.94
2022-09-12T09:16:14.528Z,101214.94
2022-09-12T09:18:22.823Z,101217.22
2022-09-12T09:20:33.229Z,101219.41
2022-09-12T09:22:42.916Z,101213.44
2022-09-12T09:24:48.795Z,101214.25
2022-09-12T09:26:57.129Z,101214.81
2022-09-12T09:29:03.157Z,101212.00
2022-09-12T09:31:05.213Z,101212.69
2022-09-12T09:33:15.444Z,101211.22
2022-09-12T09:35:18.992Z,101207.53
2022-09-12T09:37:28.391Z,101214.53
2022-09-12T09:39:45.886Z,101207.81
2022-09-12T09:41:56.564Z,101204.41
2022-09-12T09:43:59.626Z,101205.41
2022-09-12T09:46:01.195Z,101204.50
2022-09-12T09:48:15.499Z,101203.53
2022-09-12T09:50:17.470Z,101205.78
2022-09-12T09:52:24.909Z,101205.00
2022-09-12T09:54:29.542Z,101203.94
2022-09-12T09:56:34.506Z,101207.00
2022-09-12T09:58:36.945Z,101197.75
2022-09-12T10:00:39.206Z,101197.44
2022-09-12T10:02:40.766Z,101190.00
2022-09-12T10:04:54.017Z,101192.59
2022-09-12T10:06:58.545Z,101194.66
2022-09-12T10:09:06.363Z,101195.78
2022-09-12T10:11:19.051Z,101189.25
2022-09-12T10:13:27.831Z,101190.66
2022-09-12T10:15:29.358Z,101188.31
2022-09-12T10:17:39.106Z,101191.75
2022-09-12T10:19:40.665Z,101190.09
2022-09-12T10:21:52.454Z,101179.19
2022-09-12T10:24:01.191Z,101186.38
2022-09-12T10:26:05.146Z,101186.25
2022-09-12T10:28:24.071Z,101186.34
2022-09-12T10:30:27.974Z,101182.63
2022-09-12T10:32:33.970Z,101192.38
2022-09-12T10:34:38.101Z,101183.94
2022-09-12T10:36:40.058Z,101182.63
2022-09-12T10:38:49.318Z,101178.06
2022-09-12T10:40:57.642Z,101176.06
2022-09-12T10:43:00.424Z,101172.63
2022-09-12T10:45:01.876Z,101170.59
2022-09-12T10:47:23.207Z,101175.34
2022-09-12T10:49:27.907Z,101172.75
2022-09-12T10:51:29.635Z,101174.94
2022-09-12T10:53:39.680Z,101166.56
2022-09-12T10:55:47.974Z,101171.72
2022-09-12T10:57:59.959Z,101174.44
2022-09-12T11:00:09.967Z,101167.72
2022-09-12T11:02:20.048Z,101163.72
2022-09-12T11:04:34.148Z,101166.00
2022-09-12T11:06:40.331Z,101162.66
2022-09-12T11:08:53.154Z,101172.94
2022-09-12T11:10:59.616Z,101172.22
2022-09-12T11:13:13.220Z,101167.22
2022-09-12T11:15:32.500Z,101168.38
2022-09-12T11:17:44.494Z,101167.09
2022-09-12T11:20:02.461Z,101171.28
2022-09-12T11:22:19.756Z,101169.31
2022-09-12T11:24:39.477Z,101161.88
2022-09-12T11:26:50.669Z,101174.44
2022-09-12T11:29:03.929Z,101173.28
2022-09-12T11:31:23.463Z,101167.28
2022-09-12T11:33:39.656Z,101164.03
2022-09-12T11:35:54.416Z,101163.31
2022-09-12T11:38:22.437Z,101161.59
2022-09-12T11:40:29.734Z,101162.88
2022-09-12T11:42:36.820Z,101167.56
2022-09-12T11:44:41.576Z,101151.59
2022-09-12T11:46:45.230Z,101148.16
2022-09-12T11:48:55.133Z,101155.00
2022-09-12T11:50:58.017Z,101155.84
2022-09-12T11:53:05.218Z,101149.03
2022-09-12T11:55:15.779Z,101143.91
2022-09-12T11:57:24.969Z,101147.59
2022-09-12T11:59:35.207Z,101141.03
2022-09-12T12:01:44.923Z,101147.03
2022-09-12T12:03:49.970Z,101137.91
2022-09-12T12:05:55.304Z,101141.03
2022-09-12T12:08:00.199Z,101134.22
2022-09-12T12:10:01.764Z,101132.34
2022-09-12T12:12:07.720Z,101131.78
2022-09-12T12:14:16.952Z,101124.09
2022-09-12T12:16:23.244Z,101135.34
2022-09-12T12:18:26.774Z,101122.78
2022-09-12T12:20:28.906Z,101121.50
2022-09-12T12:22:30.458Z,101120.81
2022-09-12T12:24:33.408Z,101121.47
2022-09-12T12:26:54.737Z,101123.91
2022-09-12T12:28:58.944Z,101119.94
2022-09-12T12:31:01.754Z,101122.66
2022-09-12T12:33:27.170Z,101117.69
2022-09-12T12:35:40.079Z,101114.81
2022-09-12T12:37:50.845Z,101114.22
2022-09-12T12:39:58.612Z,101119.09
2022-09-12T12:42:00.456Z,101115.06
2022-09-12T12:44:40.636Z,101113.56
2022-09-12T12:47:13.736Z,101117.00
2022-09-12T12:49:21.361Z,101116.28
2022-09-12T12:51:39.962Z,101122.41
2022-09-12T12:53:42.116Z,101116.41
2022-09-12T12:55:50.255Z,101118.09
2022-09-12T12:57:54.230Z,101112.41
2022-09-12T13:00:00.339Z,101117.28
2022-09-12T13:02:03.981Z,101110.88
2022-09-12T13:04:14.026Z,101106.91
2022-09-12T13:06:29.450Z,101110.47
2022-09-12T13:08:33.311Z,101101.88
2022-09-12T13:10:35.084Z,101123.03
2022-09-12T13:12:45.767Z,101110.78
2022-09-12T13:14:54.146Z,101109.34
2022-09-12T13:16:59.082Z,101110.78
2022-09-12T13:19:05.112Z,101103.66
2022-09-12T13:21:10.130Z,101099.97
2022-09-12T13:23:22.160Z,101096.53
2022-09-12T13:25:30.349Z,101097.44
2022-09-12T13:27:31.832Z,101093.28
2022-09-12T13:29:34.651Z,101090.59
2022-09-12T13:31:36.428Z,101092.56
2022-09-12T13:33:42.282Z,101096.00
2022-09-12T13:36:12.609Z,101090.72
2022-09-12T13:38:23.324Z,101088.88
2022-09-12T13:40:33.379Z,101081.72
2022-09-12T13:42:41.800Z,101084.88
2022-09-12T13:44:47.848Z,101077.16
2022-09-12T13:46:50.859Z,101081.16
2022-09-12T13:48:52.375Z,101072.59
2022-09-12T13:50:56.519Z,101071.16
2022-09-12T13:53:01.421Z,101074.59
2022-09-12T13:55:07.825Z,101067.19
2022-09-12T13:57:28.313Z,101071.16
2022-09-12T13:59:38.189Z,101070.31
2022-09-12T14:01:42.936Z,101072.88
2022-09-12T14:03:50.007Z,101074.75
2022-09-12T14:05:56.976Z,101072.75
2022-09-12T14:08:01.391Z,101070.88
2022-09-12T14:10:03.133Z,101064.63
2022-09-12T14:12:09.842Z,101069.19
2022-09-12T14:14:23.871Z,101065.59
2022-09-12T14:16:25.382Z,101061.19
2022-09-12T14:18:30.067Z,101063.63
2022-09-12T14:20:35.896Z,101065.75
2022-09-12T14:22:37.704Z,101060.06
2022-09-12T14:24:39.659Z,101069.03
2022-09-12T14:26:43.214Z,101061.19
2022-09-12T14:28:46.384Z,101062.34
2022-09-12T14:30:59.311Z,101064.91
2022-09-12T14:33:16.654Z,101056.50
2022-09-12T14:35:20.396Z,101055.50
2022-09-12T14:37:21.846Z,101041.38
2022-09-12T14:39:28.548Z,101050.38
2022-09-12T14:41:33.051Z,101050.22
2022-09-12T14:43:37.076Z,101052.53
2022-09-12T14:45:38.643Z,101048.78
2022-09-12T14:47:42.892Z,101048.66
2022-09-12T14:49:44.632Z,101041.97
2022-09-12T14:51:55.302Z,101050.66
2022-09-12T14:53:56.924Z,101044.97
2022-09-12T14:56:05.638Z,101042.69
2022-09-12T14:58:14.670Z,101044.09
2022-09-12T15:00:19.814Z,101040.13
2022-09-12T15:02:25.418Z,101042.53
2022-09-12T15:04:40.619Z,101041.09
2022-09-12T15:06:42.099Z,101028.69
2022-09-12T15:08:44.903Z,101028.97
2022-09-12T15:10:46.805Z,101024.81
2022-09-12T15:12:48.338Z,101030.94
2022-09-12T15:14:49.794Z,101035.78
2022-09-12T15:16:51.259Z,101033.22
2022-09-12T15:18:52.739Z,101031.81
2022-09-12T15:20:56.440Z,101031.53
2022-09-12T15:22:58.191Z,101041.19
2022-09-12T15:25:01.020Z,101025.25
2022-09-12T15:27:02.520Z,101025.25
2022-09-12T15:29:04.173Z,101029.22
2022-09-12T15:31:11.188Z,101025.09
2022-09-12T15:33:12.790Z,101027.44
2022-09-12T15:35:16.630Z,101026.28
2022-09-12T15:37:19.641Z,101020.16
2022-09-12T15:39:21.176Z,101019.44
2022-09-12T15:41:31.245Z,101021.69
2022-09-12T15:43:32.714Z,101012.75
2022-09-12T15:45:35.310Z,101020.78
2022-09-12T15:47:36.862Z,101013.94
2022-09-12T15:49:38.685Z,101013.44
2022-09-12T15:51:40.189Z,101013.38
2022-09-12T15:53:42.268Z,101007.09
2022-09-12T15:55:44.557Z,101011.09
2022-09-12T15:57:47.428Z,101008.53
2022-09-12T15:59:48.907Z,101011.72
2022-09-12T16:01:50.395Z,101006.03
2022-09-12T16:03:51.975Z,101007.19
2022-09-12T16:05:56.762Z,101005.31
2022-09-12T16:07:58.291Z,101002.28
2022-09-12T16:09:59.783Z,101001.69
2022-09-12T16:12:01.802Z,101000.97
2022-09-12T16:14:05.350Z,101005.94
2022-09-12T16:16:07.728Z,101001.34
2022-09-12T16:18:09.422Z,100995.94
2022-09-12T16:20:11.819Z,100990.09
2022-09-12T16:22:13.322Z,100999.91
2022-09-12T16:24:14.905Z,100992.53
2022-09-12T16:26:17.307Z,100994.06
2022-09-12T16:28:19.027Z,100997.03
2022-09-12T16:30:21.960Z,100990.19
2022-09-12T16:32:23.533Z,100994.00
2022-09-12T16:34:25.035Z,100992.72
2022-09-12T16:36:26.641Z,100991.91
2022-09-12T16:38:30.169Z,100983.63
2022-09-12T16:40:31.675Z,100982.03
2022-09-12T16:42:33.569Z,100981.56
2022-09-12T16:44:35.213Z,100977.53
2022-09-12T16:46:38.281Z,100985.66
2022-09-12T16:48:42.711Z,100979.53
2022-09-12T16:50:44.355Z,100974.41
2022-09-12T16:52:46.557Z,100969.25
2022-09-12T16:54:48.287Z,100967.06
2022-09-12T16:56:49.788Z,100961.78
2022-09-12T16:58:51.687Z,100961.78
2022-09-12T17:01:00.348Z,100956.94
2022-09-12T17:03:03.275Z,100968.97
2022-09-12T17:05:05.620Z,100961.00
2022-09-12T17:07:07.722Z,100958.00
2022-09-12T17:09:09.481Z,100959.25
2022-09-12T17:11:15.993Z,100958.06
2022-09-12T17:13:17.484Z,100956.75
2022-09-12T17:15:18.997Z,100953.13
2022-09-12T17:17:20.650Z,100958.78
2022-09-12T17:19:25.305Z,100952.66
2022-09-12T17:21:26.848Z,100949.50
2022-09-12T17:23:31.593Z,100944.34
2022-09-12T17:25:33.667Z,100959.34
2022-09-12T17:27:35.181Z,100946.44
2022-09-12T17:29:36.671Z,100954.66
2022-09-12T17:31:38.273Z,100951.38
2022-09-12T17:33:40.269Z,100952.75
2022-09-12T17:35:43.175Z,100951.28
2022-09-12T17:37:44.722Z,100948.84
2022-09-12T17:39:46.311Z,100948.13
2022-09-12T17:41:47.851Z,100959.03
2022-09-12T17:43:50.591Z,100953.28
2022-09-12T17:45:55.902Z,100953.53
2022-09-12T17:47:57.442Z,100951.09
2022-09-12T17:50:20.727Z,100949.78
2022-09-12T17:52:21.860Z,100947.19
2022-09-12T17:54:23.321Z,100949.41
2022-09-12T17:56:25.194Z,100957.03
2022-09-12T17:58:26.693Z,100948.22
2022-09-12T18:00:29.420Z,100957.53
2022-09-12T18:02:33.181Z,100961.44
2022-09-12T18:04:35.402Z,100963.66
2022-09-12T18:06:37.429Z,100969.28
2022-09-12T18:08:40.903Z,100964.50
2022-09-12T18:10:42.457Z,100965.00
2022-09-12T18:12:43.930Z,100966.34
2022-09-12T18:14:45.564Z,100961.94
2022-09-12T18:16:47.761Z,100956.56
2022-09-12T18:18:49.277Z,100964.09
2022-09-12T18:20:50.830Z,100967.78
2022-09-12T18:22:52.308Z,100965.34
2022-09-12T18:24:55.177Z,100957.88
2022-09-12T18:26:56.723Z,100953.56
2022-09-12T18:28:58.778Z,100957.13
2022-09-12T18:31:00.409Z,100946.47
2022-09-12T18:33:02.035Z,100952.13
2022-09-12T18:35:03.751Z,100953.81
2022-09-12T18:37:05.279Z,100948.69
2022-09-12T18:39:07.029Z,100955.78
2022-09-12T18:41:11.608Z,100952.13
2022-09-12T18:43:13.173Z,100942.56
2022-09-12T18:45:14.957Z,100946.72
2022-09-12T18:47:16.618Z,100948.19
2022-09-12T18:49:18.116Z,100947.47
2022-09-12T18:51:20.687Z,100948.69
2022-09-12T18:53:22.145Z,100943.28
2022-09-12T18:55:23.865Z,100948.91
2022-09-12T18:57:26.710Z,100944.75
2022-09-12T18:59:28.180Z,100943.16
2022-09-12T19:01:31.433Z,100935.56
2022-09-12T19:03:33.051Z,100942.16
2022-09-12T19:05:34.766Z,100942.84
2022-09-12T19:07:36.265Z,100932.69
2022-09-12T19:09:37.961Z,100927.91
2022-09-12T19:11:41.617Z,100918.75
2022-09-12T19:13:46.472Z,100919.50
2022-09-12T19:15:48.083Z,100927.19
2022-09-12T19:17:49.611Z,100913.59
2022-09-12T19:19:51.074Z,100913.31
2022-09-12T19:21:52.706Z,100921.91
2022-09-12T19:23:56.946Z,100922.13
2022-09-12T19:26:00.978Z,100917.22
2022-09-12T19:28:02.736Z,100920.28
2022-09-12T19:30:06.608Z,100923.41
2022-09-12T19:32:08.129Z,100922.03
2022-09-12T19:34:11.066Z,100921.66
2022-09-12T19:36:34.049Z,100921.03
2022-09-12T19:38:36.464Z,100910.50
2022-09-12T19:40:38.105Z,100915.88
2022-09-12T19:42:39.672Z,100911.81
2022-09-12T19:44:41.163Z,100914.81
2022-09-12T19:46:44.120Z,100911.16
2022-09-12T19:48:45.812Z,100917.63
2022-09-12T19:50:47.671Z,100904.94
2022-09-12T19:52:49.182Z,100912.72
2022-09-12T19:54:50.665Z,100903.28
2022-09-12T19:56:52.165Z,100912.09
2022-09-12T19:58:56.457Z,100904.81
2022-09-12T20:01:08.766Z,100905.91
2022-09-12T20:03:11.632Z,100915.41
2022-09-12T20:05:13.183Z,100902.31
2022-09-12T20:07:14.656Z,100903.16
2022-09-12T20:09:16.208Z,100902.19
2022-09-12T20:11:19.798Z,100899.84
2022-09-12T20:13:21.345Z,100898.25
2022-09-12T20:15:22.857Z,100891.38
2022-09-12T20:17:24.422Z,100887.72
2022-09-12T20:19:27.310Z,100887.72
2022-09-12T20:21:30.224Z,100889.34
2022-09-12T20:23:31.745Z,100884.53
2022-09-12T20:25:33.265Z,100893.31
2022-09-12T20:27:34.774Z,100895.03
2022-09-12T20:29:36.299Z,100893.03
2022-09-12T20:31:40.395Z,100884.56
2022-09-12T20:33:42.498Z,100884.13
2022-09-12T20:35:45.326Z,100890.56
2022-09-12T20:37:46.865Z,100885.66
2022-09-12T20:39:50.876Z,100882.00
2022-09-12T20:41:52.698Z,100886.72
2022-09-12T20:43:55.957Z,100883.41
2022-09-12T20:45:57.597Z,100880.91
2022-09-12T20:47:59.192Z,100876.94
2022-09-12T20:50:00.687Z,100876.41
2022-09-12T20:52:03.824Z,100880.28
2022-09-12T20:54:07.030Z,100879.00
2022-09-12T20:56:08.585Z,100873.53
2022-09-12T20:58:10.067Z,100879.88
2022-09-12T21:00:12.527Z,100876.97
2022-09-12T21:02:15.325Z,100872.91
2022-09-12T21:04:17.222Z,100872.91
2022-09-12T21:06:19.285Z,100860.56
2022-09-12T21:08:22.119Z,100867.84
2022-09-12T21:10:23.596Z,100875.25
2022-09-12T21:12:27.398Z,100874.09
2022-09-12T21:14:28.912Z,100863.69
2022-09-12T21:16:30.440Z,100864.00
2022-09-12T21:18:32.837Z,100865.31
2022-09-12T21:20:34.488Z,100862.19
2022-09-12T21:22:36.065Z,100868.94
2022-09-12T21:24:38.956Z,100862.94
2022-09-12T21:26:40.521Z,100860.47
2022-09-12T21:28:41.972Z,100858.22
2022-09-12T21:30:43.731Z,100867.56
2022-09-12T21:32:45.216Z,100864.03
2022-09-12T21:34:46.727Z,100860.59
2022-09-12T21:36:48.240Z,100860.50
2022-09-12T21:38:49.713Z,100853.53
2022-09-12T21:41:02.639Z,100847.63
2022-09-12T21:43:04.218Z,100851.81
2022-09-12T21:45:06.459Z,100851.44
2022-09-12T21:47:07.939Z,100854.88
2022-09-12T21:49:09.605Z,100849.84
2022-09-12T21:51:11.161Z,100854.34
2022-09-12T21:53:12.727Z,100850.91
2022-09-12T21:55:14.508Z,100843.50
2022-09-12T21:57:17.329Z,100835.59
2022-09-12T21:59:18.868Z,100835.59
2022-09-12T22:01:20.655Z,100845.56
2022-09-12T22:03:22.263Z,100836.53
2022-09-12T22:05:23.719Z,100836.22
2022-09-12T22:07:25.330Z,100833.75
2022-09-12T22:09:26.917Z,100831.06
2022-09-12T22:11:28.371Z,100837.28
2022-09-12T22:13:31.427Z,100827.84
2022-09-12T22:15:41.223Z,100831.28
2022-09-12T22:17:43.174Z,100824.84
2022-09-12T22:19:44.645Z,100813.81
2022-09-12T22:21:46.268Z,100820.69
2022-09-12T22:23:47.860Z,100814.03
2022-09-12T22:25:49.562Z,100812.53
2022-09-12T22:27:58.342Z,100803.31
2022-09-12T22:30:01.211Z,100808.47
2022-09-12T22:32:03.473Z,100799.13
2022-09-12T22:34:05.416Z,100790.66
2022-09-12T22:36:08.378Z,100794.41
2022-09-12T22:38:09.923Z,100800.94
2022-09-12T22:40:11.593Z,100795.81
2022-09-12T22:42:13.964Z,100780.59
2022-09-12T22:44:15.532Z,100790.44
2022-09-12T22:46:18.442Z,100795.16
2022-09-12T22:48:20.000Z,100785.31
2022-09-12T22:50:21.605Z,100764.09
2022-09-12T22:52:23.169Z,100772.88
2022-09-12T22:54:24.689Z,100770.28
2022-09-12T22:56:26.823Z,100758.72
2022-09-12T22:58:28.295Z,100764.09
2022-09-12T23:00:29.915Z,100755.47
2022-09-12T23:02:32.830Z,100748.41
2022-09-12T23:04:34.427Z,100753.97
2022-09-12T23:06:35.884Z,100744.53
2022-09-12T23:08:38.518Z,100744.53
2022-09-12T23:10:40.183Z,100752.69
2022-09-12T23:12:41.619Z,100748.72
2022-09-12T23:14:43.267Z,100750.44
2022-09-12T23:16:44.953Z,100749.66
2022-09-12T23:18:48.288Z,100751.81
2022-09-12T23:20:56.722Z,100742.03
2022-09-12T23:22:58.162Z,100748.00
2022-09-12T23:24:59.576Z,100742.75
2022-09-12T23:27:01.089Z,100746.28
2022-09-12T23:29:03.548Z,100745.34
2022-09-12T23:31:05.831Z,100741.91
2022-09-12T23:33:07.350Z,100736.34
2022-09-12T23:35:10.176Z,100742.13
2022-09-12T23:37:11.602Z,100740.59
2022-09-12T23:39:13.211Z,100728.09
2022-09-12T23:41:15.570Z,100728.84